sensor_id;sensor_type;location;lat;lon;timestamp;pressure;altitude;pressure_sealevel;temperature;humidity
12624;BME280;6377;42.836;23.998;2022-11-20T00:11:47;95005.59;;;8.04;100.00
12624;BME280;6377;42.836;23.998;2022-11-20T00:16:56;94913.50;;;7.44;100.00
12624;BME280;6377;42.836;23.998;2022-11-20T00:19:23;94957.00;;;7.69;100.00
12624;BME280;6377;42.836;23.998;2022-11-20T00:21:51;94904.34;;;7.55;100.00
12624;BME280;6377;42.836;23.998;2022-11-20T00:24:19;94968.53;;;8.06;100.00
12624;BME280;6377;42.836;23.998;2022-11-20T00:26:49;94942.91;;;7.85;100.00
12624;BME280;6377;42.836;23.998;2022-11-20T00:29:16;94973.88;;;7.98;100.00
12624;BME280;6377;42.836;23.998;2022-11-20T00:34:46;94943.91;;;7.99;100.00
12624;BME280;6377;42.836;23.998;2022-11-20T00:37:17;94983.16;;;8.23;100.00
12624;BME280;6377;42.836;23.998;2022-11-20T00:39:44;94920.50;;;8.04;100.00
12624;BME280;6377;42.836;23.998;2022-11-20T00:42:25;94933.84;;;8.02;100.00
12624;BME280;6377;42.836;23.998;2022-11-20T00:44:56;94923.97;;;8.04;100.00
12624;BME280;6377;42.836;23.998;2022-11-20T00:47:29;94836.63;;;7.34;100.00
12624;BME280;6377;42.836;23.998;2022-11-20T00:52:45;94936.22;;;8.12;100.00
12624;BME280;6377;42.836;23.998;2022-11-20T00:55:13;94934.50;;;8.04;100.00
12624;BME280;6377;42.836;23.998;2022-11-20T00:57:42;94872.41;;;7.58;100.00
12624;BME280;6377;42.836;23.998;2022-11-20T01:11:15;94903.88;;;7.88;100.00
12624;BME280;6377;42.836;23.998;2022-11-20T01:13:47;94953.50;;;8.29;100.00
12624;BME280;6377;42.836;23.998;2022-11-20T01:16:17;94869.63;;;7.59;100.00
12624;BME280;6377;42.836;23.998;2022-11-20T01:21:38;94982.34;;;8.22;100.00
12624;BME280;6377;42.836;23.998;2022-11-20T01:29:35;94893.50;;;7.87;100.00
12624;BME280;6377;42.836;23.998;2022-11-20T01:32:02;94868.72;;;7.81;100.00
12624;BME280;6377;42.836;23.998;2022-11-20T01:34:30;94849.31;;;7.82;100.00
12624;BME280;6377;42.836;23.998;2022-11-20T01:42:16;94911.81;;;8.32;100.00
12624;BME280;6377;42.836;23.998;2022-11-20T01:47:44;94902.78;;;8.27;100.00
12624;BME280;6377;42.836;23.998;2022-11-20T01:50:19;94810.09;;;7.87;100.00
12624;BME280;6377;42.836;23.998;2022-11-20T01:52:51;94824.97;;;8.10;100.00
12624;BME280;6377;42.836;23.998;2022-11-20T01:55:26;94750.47;;;7.80;100.00
12624;BME280;6377;42.836;23.998;2022-11-20T01:57:56;94823.94;;;8.25;100.00
12624;BME280;6377;42.836;23.998;2022-11-20T02:03:36;94836.28;;;8.25;100.00
12624;BME280;6377;42.836;23.998;2022-11-20T02:06:10;94829.00;;;8.56;100.00
12624;BME280;6377;42.836;23.998;2022-11-20T02:08:39;94762.59;;;8.46;100.00
12624;BME280;6377;42.836;23.998;2022-11-20T02:11:06;94811.47;;;9.12;100.00
12624;BME280;6377;42.836;23.998;2022-11-20T02:13:34;94797.38;;;9.26;100.00
12624;BME280;6377;42.836;23.998;2022-11-20T02:16:12;94683.66;;;8.59;100.00
12624;BME280;6377;42.836;23.998;2022-11-20T02:18:41;94831.72;;;9.88;100.00
12624;BME280;6377;42.836;23.998;2022-11-20T02:21:17;94838.06;;;10.95;100.00
12624;BME280;6377;42.836;23.998;2022-11-20T02:24:07;94834.50;;;12.46;100.00
12624;BME280;6377;42.836;23.998;2022-11-20T02:26:41;94832.56;;;13.04;100.00
12624;BME280;6377;42.836;23.998;2022-11-20T02:29:09;94775.47;;;13.51;100.00
12624;BME280;6377;42.836;23.998;2022-11-20T02:31:40;94831.53;;;14.10;100.00
12624;BME280;6377;42.836;23.998;2022-11-20T02:34:08;94830.72;;;14.28;100.00
12624;BME280;6377;42.836;23.998;2022-11-20T02:36:36;94710.91;;;13.50;100.00
12624;BME280;6377;42.836;23.998;2022-11-20T02:39:07;94836.16;;;14.39;100.00
12624;BME280;6377;42.836;23.998;2022-11-20T02:41:37;94789.63;;;14.24;100.00
12624;BME280;6377;42.836;23.998;2022-11-20T02:44:05;94841.16;;;14.47;100.00
12624;BME280;6377;42.836;23.998;2022-11-20T02:46:32;94820.31;;;14.26;100.00
12624;BME280;6377;42.836;23.998;2022-11-20T02:49:01;94767.91;;;13.72;100.00
12624;BME280;6377;42.836;23.998;2022-11-20T02:51:28;94862.81;;;14.33;100.00
12624;BME280;6377;42.836;23.998;2022-11-20T02:53:55;94871.19;;;14.30;100.00
12624;BME280;6377;42.836;23.998;2022-11-20T02:56:24;94840.88;;;13.94;100.00
12624;BME280;6377;42.836;23.998;2022-11-20T02:58:52;94794.47;;;13.47;100.00
12624;BME280;6377;42.836;23.998;2022-11-20T03:01:21;94855.88;;;13.64;100.00
12624;BME280;6377;42.836;23.998;2022-11-20T03:03:49;94904.44;;;13.71;100.00
12624;BME280;6377;42.836;23.998;2022-11-20T03:06:25;94776.78;;;12.79;100.00
12624;BME280;6377;42.836;23.998;2022-11-20T03:08:52;94803.09;;;12.80;100.00
12624;BME280;6377;42.836;23.998;2022-11-20T03:11:20;94843.34;;;13.15;100.00
12624;BME280;6377;42.836;23.998;2022-11-20T03:13:48;94852.38;;;13.01;100.00
12624;BME280;6377;42.836;23.998;2022-11-20T03:16:25;94887.78;;;12.88;100.00
12624;BME280;6377;42.836;23.998;2022-11-20T03:18:52;94931.59;;;13.11;100.00
12624;BME280;6377;42.836;23.998;2022-11-20T03:21:19;94929.16;;;13.03;100.00
12624;BME280;6377;42.836;23.998;2022-11-20T03:24:02;94920.66;;;12.87;100.00
12624;BME280;6377;42.836;23.998;2022-11-20T03:26:29;94933.34;;;12.79;100.00
12624;BME280;6377;42.836;23.998;2022-11-20T03:29:00;94939.06;;;12.82;100.00
12624;BME280;6377;42.836;23.998;2022-11-20T03:31:29;94949.50;;;12.71;100.00
12624;BME280;6377;42.836;23.998;2022-11-20T03:34:02;94949.50;;;12.71;100.00
12624;BME280;6377;42.836;23.998;2022-11-20T03:36:33;94943.00;;;12.54;100.00
12624;BME280;6377;42.836;23.998;2022-11-20T03:39:01;94907.16;;;12.25;100.00
12624;BME280;6377;42.836;23.998;2022-11-20T03:41:29;94919.09;;;12.67;100.00
12624;BME280;6377;42.836;23.998;2022-11-20T03:43:59;94956.38;;;12.85;100.00
12624;BME280;6377;42.836;23.998;2022-11-20T03:46:27;94940.31;;;12.67;100.00
12624;BME280;6377;42.836;23.998;2022-11-20T03:48:55;94954.81;;;12.64;100.00
12624;BME280;6377;42.836;23.998;2022-11-20T03:51:24;94950.09;;;12.73;100.00
12624;BME280;6377;42.836;23.998;2022-11-20T03:53:56;94920.94;;;12.66;100.00
12624;BME280;6377;42.836;23.998;2022-11-20T03:56:26;94972.78;;;13.26;100.00
12624;BME280;6377;42.836;23.998;2022-11-20T03:59:11;94940.97;;;13.20;100.00
12624;BME280;6377;42.836;23.998;2022-11-20T04:01:39;94950.00;;;13.50;100.00
12624;BME280;6377;42.836;23.998;2022-11-20T04:04:09;94992.06;;;13.84;100.00
12624;BME280;6377;42.836;23.998;2022-11-20T04:06:37;94973.78;;;13.94;100.00
12624;BME280;6377;42.836;23.998;2022-11-20T04:09:06;94919.72;;;13.82;100.00
12624;BME280;6377;42.836;23.998;2022-11-20T04:11:34;94933.47;;;13.97;100.00
12624;BME280;6377;42.836;23.998;2022-11-20T04:14:02;94949.06;;;14.19;100.00
12624;BME280;6377;42.836;23.998;2022-11-20T04:16:33;94946.53;;;14.06;100.00
12624;BME280;6377;42.836;23.998;2022-11-20T04:19:03;94952.03;;;14.04;100.00
12624;BME280;6377;42.836;23.998;2022-11-20T04:21:31;94956.81;;;13.95;100.00
12624;BME280;6377;42.836;23.998;2022-11-20T04:23:59;94961.25;;;13.77;100.00
12624;BME280;6377;42.836;23.998;2022-11-20T04:26:27;94951.50;;;13.71;100.00
12624;BME280;6377;42.836;23.998;2022-11-20T04:28:55;94942.34;;;13.60;100.00
12624;BME280;6377;42.836;23.998;2022-11-20T04:31:24;94938.75;;;13.48;100.00
12624;BME280;6377;42.836;23.998;2022-11-20T04:33:53;94973.31;;;13.41;100.00
12624;BME280;6377;42.836;23.998;2022-11-20T04:36:21;94945.03;;;13.22;100.00
12624;BME280;6377;42.836;23.998;2022-11-20T04:38:51;94935.31;;;12.97;100.00
12624;BME280;6377;42.836;23.998;2022-11-20T04:41:19;94937.72;;;12.47;100.00
12624;BME280;6377;42.836;23.998;2022-11-20T04:43:47;94990.78;;;12.34;100.00
12624;BME280;6377;42.836;23.998;2022-11-20T04:46:15;94939.00;;;11.79;100.00
12624;BME280;6377;42.836;23.998;2022-11-20T04:48:42;94965.91;;;11.96;100.00
12624;BME280;6377;42.836;23.998;2022-11-20T04:51:11;94913.91;;;11.62;100.00
12624;BME280;6377;42.836;23.998;2022-11-20T04:53:38;94983.22;;;11.78;100.00
12624;BME280;6377;42.836;23.998;2022-11-20T04:56:07;94983.94;;;11.46;100.00
12624;BME280;6377;42.836;23.998;2022-11-20T04:58:44;94831.22;;;10.47;100.00
12624;BME280;6377;42.836;23.998;2022-11-20T05:01:12;94970.03;;;11.24;100.00
12624;BME280;6377;42.836;23.998;2022-11-20T05:03:41;94925.34;;;10.82;100.00
12624;BME280;6377;42.836;23.998;2022-11-20T05:06:22;94989.53;;;11.10;100.00
12624;BME280;6377;42.836;23.998;2022-11-20T05:08:52;94899.34;;;10.51;100.00
12624;BME280;6377;42.836;23.998;2022-11-20T05:11:22;94936.31;;;10.79;100.00
12624;BME280;6377;42.836;23.998;2022-11-20T05:13:50;94971.63;;;11.06;100.00
12624;BME280;6377;42.836;23.998;2022-11-20T05:16:22;94919.06;;;10.49;100.00
12624;BME280;6377;42.836;23.998;2022-11-20T05:18:50;94999.50;;;11.08;100.00
12624;BME280;6377;42.836;23.998;2022-11-20T05:21:25;94894.84;;;10.45;100.00
12624;BME280;6377;42.836;23.998;2022-11-20T05:23:53;94978.59;;;10.73;100.00
12624;BME280;6377;42.836;23.998;2022-11-20T05:29:03;94986.31;;;10.33;100.00
12624;BME280;6377;42.836;23.998;2022-11-20T05:31:30;94975.63;;;10.20;100.00
12624;BME280;6377;42.836;23.998;2022-11-20T05:33:58;94937.59;;;9.93;100.00
12624;BME280;6377;42.836;23.998;2022-11-20T05:36:26;94950.13;;;9.85;100.00
12624;BME280;6377;42.836;23.998;2022-11-20T05:38:54;94994.72;;;9.94;100.00
12624;BME280;6377;42.836;23.998;2022-11-20T05:41:35;94982.13;;;9.75;100.00
12624;BME280;6377;42.836;23.998;2022-11-20T05:44:03;94986.63;;;9.53;100.00
12624;BME280;6377;42.836;23.998;2022-11-20T05:46:30;95010.06;;;9.63;100.00
12624;BME280;6377;42.836;23.998;2022-11-20T05:48:58;94941.03;;;9.02;100.00
12624;BME280;6377;42.836;23.998;2022-11-20T05:57:15;94981.78;;;9.00;100.00
12624;BME280;6377;42.836;23.998;2022-11-20T06:11:06;95032.25;;;9.12;100.00
12624;BME280;6377;42.836;23.998;2022-11-20T06:13:36;95041.72;;;9.06;100.00
12624;BME280;6377;42.836;23.998;2022-11-20T06:18:50;94930.84;;;8.49;100.00
12624;BME280;6377;42.836;23.998;2022-11-20T06:21:18;95068.78;;;9.29;100.00
12624;BME280;6377;42.836;23.998;2022-11-20T06:23:47;95015.72;;;9.03;100.00
12624;BME280;6377;42.836;23.998;2022-11-20T06:29:02;95071.97;;;9.25;100.00
12624;BME280;6377;42.836;23.998;2022-11-20T06:31:30;95066.78;;;9.17;100.00
12624;BME280;6377;42.836;23.998;2022-11-20T06:33:58;95087.78;;;9.25;100.00
12624;BME280;6377;42.836;23.998;2022-11-20T06:36:25;95146.59;;;9.69;100.00
12624;BME280;6377;42.836;23.998;2022-11-20T07:28:51;95211.44;;;9.13;100.00
12624;BME280;6377;42.836;23.998;2022-11-20T07:31:18;95205.91;;;9.23;100.00
12624;BME280;6377;42.836;23.998;2022-11-20T07:33:45;95206.81;;;9.44;100.00
12624;BME280;6377;42.836;23.998;2022-11-20T07:36:13;95120.03;;;9.06;100.00
12624;BME280;6377;42.836;23.998;2022-11-20T07:38:40;95154.88;;;9.30;100.00
12624;BME280;6377;42.836;23.998;2022-11-20T07:41:07;95194.09;;;9.48;100.00
12624;BME280;6377;42.836;23.998;2022-11-20T07:49:23;95191.50;;;9.11;100.00
12624;BME280;6377;42.836;23.998;2022-11-20T07:51:50;95215.19;;;9.33;100.00
12624;BME280;6377;42.836;23.998;2022-11-20T07:56:59;95191.34;;;9.27;100.00
12624;BME280;6377;42.836;23.998;2022-11-20T07:59:26;95180.06;;;9.33;100.00
12624;BME280;6377;42.836;23.998;2022-11-20T08:01:54;95242.31;;;9.71;100.00
12624;BME280;6377;42.836;23.998;2022-11-20T08:04:23;95168.69;;;9.47;100.00
12624;BME280;6377;42.836;23.998;2022-11-20T08:06:51;95063.72;;;8.84;100.00
12624;BME280;6377;42.836;23.998;2022-11-20T08:09:19;95210.81;;;9.70;100.00
12624;BME280;6377;42.836;23.998;2022-11-20T08:11:46;95228.53;;;9.90;100.00
12624;BME280;6377;42.836;23.998;2022-11-20T08:14:30;95224.78;;;9.99;100.00
12624;BME280;6377;42.836;23.998;2022-11-20T08:16:57;95188.31;;;9.74;100.00
12624;BME280;6377;42.836;23.998;2022-11-20T08:19:26;95188.41;;;9.80;100.00
12624;BME280;6377;42.836;23.998;2022-11-20T08:21:54;95174.53;;;9.78;100.00
12624;BME280;6377;42.836;23.998;2022-11-20T08:24:22;95206.38;;;10.06;100.00
12624;BME280;6377;42.836;23.998;2022-11-20T08:27:05;95186.44;;;10.03;100.00
12624;BME280;6377;42.836;23.998;2022-11-20T08:29:41;95208.72;;;10.30;100.00
12624;BME280;6377;42.836;23.998;2022-11-20T08:32:09;95246.28;;;10.47;100.00
12624;BME280;6377;42.836;23.998;2022-11-20T08:34:38;95204.19;;;10.09;100.00
12624;BME280;6377;42.836;23.998;2022-11-20T08:37:05;95211.91;;;10.26;100.00
12624;BME280;6377;42.836;23.998;2022-11-20T08:39:32;95172.41;;;10.03;100.00
12624;BME280;6377;42.836;23.998;2022-11-20T08:41:59;95183.06;;;10.31;100.00
12624;BME280;6377;42.836;23.998;2022-11-20T08:44:27;95129.00;;;10.12;100.00
12624;BME280;6377;42.836;23.998;2022-11-20T08:46:54;95184.06;;;10.51;100.00
12624;BME280;6377;42.836;23.998;2022-11-20T08:49:21;95106.47;;;9.95;100.00
12624;BME280;6377;42.836;23.998;2022-11-20T08:51:49;95124.19;;;10.16;100.00
12624;BME280;6377;42.836;23.998;2022-11-20T08:54:22;95195.84;;;10.48;100.00
12624;BME280;6377;42.836;23.998;2022-11-20T08:56:58;95075.13;;;9.71;100.00
12624;BME280;6377;42.836;23.998;2022-11-20T09:06:09;95190.06;;;10.59;100.00
12624;BME280;6377;42.836;23.998;2022-11-20T09:08:38;95109.78;;;10.18;100.00
12624;BME280;6377;42.836;23.998;2022-11-20T09:11:06;95193.56;;;10.88;100.00
12624;BME280;6377;42.836;23.998;2022-11-20T09:13:34;95189.75;;;10.97;100.00
12624;BME280;6377;42.836;23.998;2022-11-20T09:16:04;95189.50;;;11.19;100.00
12624;BME280;6377;42.836;23.998;2022-11-20T09:18:32;95190.50;;;11.18;100.00
12624;BME280;6377;42.836;23.998;2022-11-20T09:21:03;95142.19;;;10.76;100.00
12624;BME280;6377;42.836;23.998;2022-11-20T09:23:32;95036.59;;;10.19;100.00
12624;BME280;6377;42.836;23.998;2022-11-20T09:26:03;95117.72;;;11.01;100.00
12624;BME280;6377;42.836;23.998;2022-11-20T09:28:30;95176.09;;;11.55;100.00
12624;BME280;6377;42.836;23.998;2022-11-20T09:30:58;95178.34;;;11.58;100.00
12624;BME280;6377;42.836;23.998;2022-11-20T09:33:25;95162.97;;;11.41;100.00
12624;BME280;6377;42.836;23.998;2022-11-20T09:36:07;95170.31;;;11.45;100.00
12624;BME280;6377;42.836;23.998;2022-11-20T09:38:34;95177.84;;;11.76;100.00
12624;BME280;6377;42.836;23.998;2022-11-20T09:41:04;95189.66;;;11.73;100.00
12624;BME280;6377;42.836;23.998;2022-11-20T09:43:45;95164.47;;;11.56;100.00
12624;BME280;6377;42.836;23.998;2022-11-20T09:46:21;95044.97;;;10.84;100.00
12624;BME280;6377;42.836;23.998;2022-11-20T09:49:01;95182.91;;;11.71;100.00
12624;BME280;6377;42.836;23.998;2022-11-20T09:51:39;95175.72;;;11.65;100.00
12624;BME280;6377;42.836;23.998;2022-11-20T09:54:15;95162.22;;;11.60;100.00
12624;BME280;6377;42.836;23.998;2022-11-20T09:56:48;95176.66;;;11.85;100.00
12624;BME280;6377;42.836;23.998;2022-11-20T09:59:28;95140.78;;;11.83;100.00
12624;BME280;6377;42.836;23.998;2022-11-20T10:01:57;95187.38;;;12.18;100.00
12624;BME280;6377;42.836;23.998;2022-11-20T10:04:26;95163.84;;;11.95;100.00
12624;BME280;6377;42.836;23.998;2022-11-20T10:07:01;95160.38;;;11.88;100.00
12624;BME280;6377;42.836;23.998;2022-11-20T10:09:32;95158.47;;;11.75;100.00
12624;BME280;6377;42.836;23.998;2022-11-20T10:12:16;95091.34;;;11.14;100.00
12624;BME280;6377;42.836;23.998;2022-11-20T10:14:58;95172.34;;;11.43;100.00
12624;BME280;6377;42.836;23.998;2022-11-20T10:17:35;95157.19;;;11.31;100.00
12624;BME280;6377;42.836;23.998;2022-11-20T10:20:16;95149.91;;;11.33;100.00
12624;BME280;6377;42.836;23.998;2022-11-20T10:22:54;95158.63;;;11.27;100.00
12624;BME280;6377;42.836;23.998;2022-11-20T10:25:32;95220.63;;;11.45;100.00
12624;BME280;6377;42.836;23.998;2022-11-20T10:28:26;95170.44;;;11.31;100.00
12624;BME280;6377;42.836;23.998;2022-11-20T10:30:59;95168.81;;;11.30;100.00
12624;BME280;6377;42.836;23.998;2022-11-20T10:33:29;95182.28;;;11.35;100.00
12624;BME280;6377;42.836;23.998;2022-11-20T10:36:06;95175.88;;;11.22;100.00
12624;BME280;6377;42.836;23.998;2022-11-20T10:38:42;95043.31;;;10.49;100.00
12624;BME280;6377;42.836;23.998;2022-11-20T10:41:15;95158.03;;;11.31;100.00
12624;BME280;6377;42.836;23.998;2022-11-20T10:44:08;95169.13;;;11.54;100.00
12624;BME280;6377;42.836;23.998;2022-11-20T10:46:39;95123.69;;;11.44;100.00
12624;BME280;6377;42.836;23.998;2022-11-20T10:49:13;95173.34;;;11.70;100.00
12624;BME280;6377;42.836;23.998;2022-11-20T10:51:52;95181.72;;;11.73;100.00
12624;BME280;6377;42.836;23.998;2022-11-20T10:54:33;95177.22;;;11.74;100.00
12624;BME280;6377;42.836;23.998;2022-11-20T10:57:10;95157.44;;;11.70;100.00
12624;BME280;6377;42.836;23.998;2022-11-20T10:59:57;95187.09;;;12.00;100.00
12624;BME280;6377;42.836;23.998;2022-11-20T11:02:33;95173.66;;;12.01;100.00
12624;BME280;6377;42.836;23.998;2022-11-20T11:05:10;95150.97;;;11.86;100.00
12624;BME280;6377;42.836;23.998;2022-11-20T11:07:40;95149.75;;;11.88;100.00
12624;BME280;6377;42.836;23.998;2022-11-20T11:10:15;95131.88;;;12.03;100.00
12624;BME280;6377;42.836;23.998;2022-11-20T11:12:47;95132.72;;;12.23;100.00
12624;BME280;6377;42.836;23.998;2022-11-20T11:15:26;95139.66;;;12.31;100.00
12624;BME280;6377;42.836;23.998;2022-11-20T11:17:53;95115.38;;;12.14;100.00
12624;BME280;6377;42.836;23.998;2022-11-20T11:20:22;95130.06;;;12.23;100.00
12624;BME280;6377;42.836;23.998;2022-11-20T11:22:51;95159.06;;;12.31;100.00
12624;BME280;6377;42.836;23.998;2022-11-20T11:25:27;95136.22;;;12.37;100.00
12624;BME280;6377;42.836;23.998;2022-11-20T11:28:02;95111.50;;;12.30;100.00
12624;BME280;6377;42.836;23.998;2022-11-20T11:30:42;95120.50;;;12.49;100.00
12624;BME280;6377;42.836;23.998;2022-11-20T11:33:11;95092.16;;;12.43;100.00
12624;BME280;6377;42.836;23.998;2022-11-20T11:35:49;95086.84;;;12.36;100.00
12624;BME280;6377;42.836;23.998;2022-11-20T11:38:22;95107.84;;;12.57;100.00
12624;BME280;6377;42.836;23.998;2022-11-20T11:40:53;94952.41;;;11.45;100.00
12624;BME280;6377;42.836;23.998;2022-11-20T11:43:24;95026.03;;;12.02;100.00
12624;BME280;6377;42.836;23.998;2022-11-20T11:46:34;95038.28;;;12.22;100.00
12624;BME280;6377;42.836;23.998;2022-11-20T11:49:15;95081.94;;;12.46;100.00
12624;BME280;6377;42.836;23.998;2022-11-20T11:51:54;95107.25;;;12.49;100.00
12624;BME280;6377;42.836;23.998;2022-11-20T11:54:24;95103.16;;;12.33;100.00
12624;BME280;6377;42.836;23.998;2022-11-20T11:57:00;95110.28;;;12.19;100.00
12624;BME280;6377;42.836;23.998;2022-11-20T11:59:38;95044.38;;;11.77;100.00
12624;BME280;6377;42.836;23.998;2022-11-20T12:02:24;95067.03;;;12.06;100.00
12624;BME280;6377;42.836;23.998;2022-11-20T12:04:57;95092.91;;;11.97;100.00
12624;BME280;6377;42.836;23.998;2022-11-20T12:07:36;95054.78;;;11.92;100.00
12624;BME280;6377;42.836;23.998;2022-11-20T12:10:14;95092.34;;;12.15;100.00
12624;BME280;6377;42.836;23.998;2022-11-20T12:12:44;95134.97;;;12.33;100.00
12624;BME280;6377;42.836;23.998;2022-11-20T12:15:28;95162.13;;;12.48;100.00
12624;BME280;6377;42.836;23.998;2022-11-20T12:17:58;95132.09;;;12.15;100.00
12624;BME280;6377;42.836;23.998;2022-11-20T12:20:33;95199.72;;;11.98;100.00
12624;BME280;6377;42.836;23.998;2022-11-20T12:23:06;95205.06;;;12.04;100.00
12624;BME280;6377;42.836;23.998;2022-11-20T12:25:36;95190.59;;;12.13;100.00
12624;BME280;6377;42.836;23.998;2022-11-20T12:28:32;95142.03;;;11.52;100.00
12624;BME280;6377;42.836;23.998;2022-11-20T12:31:35;95156.50;;;11.50;100.00
12624;BME280;6377;42.836;23.998;2022-11-20T12:37:16;95196.66;;;11.60;100.00
12624;BME280;6377;42.836;23.998;2022-11-20T12:39:49;95203.81;;;11.66;100.00
12624;BME280;6377;42.836;23.998;2022-11-20T12:42:38;95144.22;;;11.36;100.00
12624;BME280;6377;42.836;23.998;2022-11-20T12:45:50;95150.28;;;11.36;100.00
12624;BME280;6377;42.836;23.998;2022-11-20T12:48:41;95166.66;;;11.46;100.00
12624;BME280;6377;42.836;23.998;2022-11-20T12:51:21;95169.19;;;11.61;100.00
12624;BME280;6377;42.836;23.998;2022-11-20T12:54:03;95152.91;;;11.64;100.00
12624;BME280;6377;42.836;23.998;2022-11-20T12:56:39;95139.31;;;11.73;100.00
12624;BME280;6377;42.836;23.998;2022-11-20T12:59:25;95121.31;;;11.69;100.00
12624;BME280;6377;42.836;23.998;2022-11-20T13:02:01;95097.25;;;11.57;100.00
12624;BME280;6377;42.836;23.998;2022-11-20T13:04:49;95125.50;;;11.85;100.00
12624;BME280;6377;42.836;23.998;2022-11-20T13:07:27;95060.13;;;11.44;100.00
12624;BME280;6377;42.836;23.998;2022-11-20T13:09:56;95119.41;;;11.97;100.00
12624;BME280;6377;42.836;23.998;2022-11-20T13:12:31;95071.22;;;11.67;100.00
12624;BME280;6377;42.836;23.998;2022-11-20T13:15:06;94983.41;;;11.03;100.00
12624;BME280;6377;42.836;23.998;2022-11-20T13:17:41;95130.78;;;11.85;100.00
12624;BME280;6377;42.836;23.998;2022-11-20T13:20:14;95157.34;;;12.04;100.00
12624;BME280;6377;42.836;23.998;2022-11-20T13:22:44;95035.47;;;11.44;100.00
12624;BME280;6377;42.836;23.998;2022-11-20T13:25:31;95136.38;;;12.09;100.00
12624;BME280;6377;42.836;23.998;2022-11-20T13:28:00;95108.66;;;12.12;100.00
12624;BME280;6377;42.836;23.998;2022-11-20T13:30:29;95091.75;;;12.26;100.00
12624;BME280;6377;42.836;23.998;2022-11-20T13:33:01;95105.41;;;12.23;100.00
12624;BME280;6377;42.836;23.998;2022-11-20T13:35:32;95096.44;;;12.24;100.00
12624;BME280;6377;42.836;23.998;2022-11-20T13:38:02;95094.38;;;12.19;100.00
12624;BME280;6377;42.836;23.998;2022-11-20T13:40:32;95122.09;;;12.17;100.00
12624;BME280;6377;42.836;23.998;2022-11-20T13:43:19;95049.47;;;11.98;100.00
12624;BME280;6377;42.836;23.998;2022-11-20T13:46:00;95030.28;;;11.83;100.00
12624;BME280;6377;42.836;23.998;2022-11-20T13:48:30;95050.53;;;12.10;100.00
12624;BME280;6377;42.836;23.998;2022-11-20T13:51:20;95041.75;;;12.16;100.00
12624;BME280;6377;42.836;23.998;2022-11-20T13:57:14;94908.19;;;11.52;100.00
12624;BME280;6377;42.836;23.998;2022-11-20T13:59:58;94882.25;;;11.08;100.00
12624;BME280;6377;42.836;23.998;2022-11-20T14:02:37;94968.50;;;11.63;100.00
12624;BME280;6377;42.836;23.998;2022-11-20T14:05:19;95016.06;;;12.10;100.00
12624;BME280;6377;42.836;23.998;2022-11-20T14:07:53;94927.75;;;11.57;100.00
12624;BME280;6377;42.836;23.998;2022-11-20T14:10:24;94949.16;;;11.69;100.00
12624;BME280;6377;42.836;23.998;2022-11-20T14:12:53;95074.19;;;12.12;100.00
12624;BME280;6377;42.836;23.998;2022-11-20T14:15:29;94943.22;;;11.47;100.00
12624;BME280;6377;42.836;23.998;2022-11-20T14:17:57;95055.00;;;12.16;100.00
12624;BME280;6377;42.836;23.998;2022-11-20T14:20:27;94954.81;;;11.46;100.00
12624;BME280;6377;42.836;23.998;2022-11-20T14:22:56;95011.19;;;11.94;100.00
12624;BME280;6377;42.836;23.998;2022-11-20T14:25:25;94909.56;;;11.15;100.00
12624;BME280;6377;42.836;23.998;2022-11-20T14:27:57;94995.63;;;11.71;100.00
12624;BME280;6377;42.836;23.998;2022-11-20T14:30:26;95038.03;;;11.78;100.00
12624;BME280;6377;42.836;23.998;2022-11-20T14:32:56;94981.69;;;11.37;100.00
12624;BME280;6377;42.836;23.998;2022-11-20T14:35:26;94908.06;;;10.93;100.00
12624;BME280;6377;42.836;23.998;2022-11-20T14:37:54;95045.19;;;11.84;100.00
12624;BME280;6377;42.836;23.998;2022-11-20T14:40:25;95018.00;;;11.69;100.00
12624;BME280;6377;42.836;23.998;2022-11-20T14:42:52;95082.75;;;12.14;100.00
12624;BME280;6377;42.836;23.998;2022-11-20T14:45:22;95057.22;;;11.93;100.00
12624;BME280;6377;42.836;23.998;2022-11-20T14:47:50;95086.81;;;11.97;100.00
12624;BME280;6377;42.836;23.998;2022-11-20T14:50:20;95088.25;;;12.06;100.00
12624;BME280;6377;42.836;23.998;2022-11-20T14:52:53;95095.59;;;12.10;100.00
12624;BME280;6377;42.836;23.998;2022-11-20T14:55:28;95084.16;;;12.03;100.00
12624;BME280;6377;42.836;23.998;2022-11-20T14:57:57;95058.03;;;11.87;100.00
12624;BME280;6377;42.836;23.998;2022-11-20T15:00:27;95058.25;;;11.86;100.00
12624;BME280;6377;42.836;23.998;2022-11-20T15:02:55;95109.06;;;12.22;100.00
12624;BME280;6377;42.836;23.998;2022-11-20T15:05:23;95041.50;;;11.78;100.00
12624;BME280;6377;42.836;23.998;2022-11-20T15:08:03;95093.16;;;12.09;100.00
12624;BME280;6377;42.836;23.998;2022-11-20T15:10:31;95139.66;;;12.31;100.00
12624;BME280;6377;42.836;23.998;2022-11-20T15:13:00;94970.88;;;11.32;100.00
12624;BME280;6377;42.836;23.998;2022-11-20T15:15:31;95056.59;;;11.85;100.00
12624;BME280;6377;42.836;23.998;2022-11-20T15:17:59;95064.56;;;11.98;100.00
12624;BME280;6377;42.836;23.998;2022-11-20T15:20:29;95101.69;;;12.11;100.00
12624;BME280;6377;42.836;23.998;2022-11-20T15:22:57;95141.91;;;12.27;100.00
12624;BME280;6377;42.836;23.998;2022-11-20T15:25:25;95041.66;;;11.64;100.00
12624;BME280;6377;42.836;23.998;2022-11-20T15:27:55;95035.50;;;11.50;100.00
12624;BME280;6377;42.836;23.998;2022-11-20T15:30:23;95119.84;;;12.07;100.00
12624;BME280;6377;42.836;23.998;2022-11-20T15:32:54;95154.53;;;12.19;100.00
12624;BME280;6377;42.836;23.998;2022-11-20T15:35:21;95015.25;;;11.23;100.00
12624;BME280;6377;42.836;23.998;2022-11-20T15:37:49;95118.63;;;12.03;100.00
12624;BME280;6377;42.836;23.998;2022-11-20T15:40:16;95048.75;;;11.50;100.00
12624;BME280;6377;42.836;23.998;2022-11-20T15:42:44;95135.38;;;12.23;100.00
12624;BME280;6377;42.836;23.998;2022-11-20T15:45:25;95013.72;;;11.55;100.00